Time;durP1;ratioP1;P1;durP2;ratioP2;P2;SDS_P1;SDS_P2;PMS_P1;PMS_P2;Temp;Humidity;BMP_temperature;BMP_pressure;BME280_temperature;BME280_humidity;BME280_pressure;Samples;Min_cycle;Max_cycle;Signal;HPM_P1;HPM_P2
2023/01/11 09:31:47;;;;;;;7.73;1.00;;;9.60;99.90;;;;;;4896885;23;20289;-71
2023/01/11 09:34:14;;;;;;;5.57;1.17;;;9.60;99.90;;;;;;4883782;29;20215;-71
2023/01/11 09:36:43;;;;;;;8.80;2.03;;;9.70;99.90;;;;;;4900663;29;20230;-71
2023/01/11 09:39:14;;;;;;;5.70;0.93;;;9.80;99.90;;;;;;4899883;29;20225;-70
2023/01/11 09:42:04;;;;;;;8.73;1.93;;;9.80;99.90;;;;;;4900260;29;20237;-71
2023/01/11 09:44:32;;;;;;;9.63;1.20;;;9.80;99.90;;;;;;4900267;29;20221;-72
2023/01/11 09:47:12;;;;;;;12.60;1.07;;;9.80;99.90;;;;;;4900037;29;20581;-73
2023/01/11 09:49:44;;;;;;;11.23;0.80;;;9.80;99.90;;;;;;4881168;29;20266;-72
2023/01/11 09:52:23;;;;;;;7.17;1.70;;;9.90;99.90;;;;;;4881413;29;20215;-72
2023/01/11 09:54:50;;;;;;;13.13;1.73;;;9.90;99.90;;;;;;4881490;29;20215;-72
2023/01/11 09:57:26;;;;;;;9.70;1.23;;;10.00;99.90;;;;;;4882209;29;20241;-72
2023/01/11 10:00:00;;;;;;;6.13;1.33;;;10.00;99.90;;;;;;4899804;29;20213;-72
2023/01/11 10:02:41;;;;;;;8.33;1.10;;;10.00;99.90;;;;;;4899832;29;20238;-71
2023/01/11 10:05:34;;;;;;;10.70;1.27;;;10.10;99.90;;;;;;4899991;29;20206;-72
2023/01/11 10:08:28;;;;;;;14.50;1.43;;;10.00;99.90;;;;;;4892590;29;20230;-71
2023/01/11 10:11:01;;;;;;;12.47;1.27;;;10.10;99.90;;;;;;4899919;29;20309;-70
2023/01/11 10:13:42;;;;;;;8.63;0.90;;;10.20;99.90;;;;;;4899379;29;20221;-71
2023/01/11 10:16:20;;;;;;;7.83;0.97;;;10.30;99.90;;;;;;4899476;29;20661;-71
2023/01/11 10:19:01;;;;;;;4.53;0.97;;;10.40;99.90;;;;;;4899609;29;20236;-72
2023/01/11 10:21:35;;;;;;;9.73;1.10;;;10.40;99.90;;;;;;4899722;29;20214;-73
2023/01/11 10:24:06;;;;;;;11.97;2.13;;;10.40;99.90;;;;;;4899820;29;20214;-72
2023/01/11 10:26:38;;;;;;;11.97;1.20;;;10.50;99.90;;;;;;4899440;29;20677;-71
2023/01/11 10:29:37;;;;;;;7.60;0.97;;;10.70;99.90;;;;;;4899289;29;20217;-72
2023/01/11 10:32:30;;;;;;;12.07;1.63;;;10.70;99.90;;;;;;4899456;29;20206;-71
2023/01/11 10:35:28;;;;;;;11.33;0.97;;;10.60;99.90;;;;;;4899473;29;20226;-72
2023/01/11 10:38:09;;;;;;;6.27;1.17;;;10.60;99.90;;;;;;4899152;29;20234;-72
2023/01/11 10:43:27;;;;;;;5.60;1.50;;;10.70;99.90;;;;;;4899185;29;20238;-71
2023/01/11 10:45:57;;;;;;;10.43;1.03;;;10.70;99.90;;;;;;4899349;29;20211;-72
2023/01/11 10:48:28;;;;;;;7.57;1.10;;;10.60;99.90;;;;;;4899242;29;20237;-71
2023/01/11 10:51:03;;;;;;;10.80;1.43;;;10.60;99.90;;;;;;4899118;29;20225;-71
2023/01/11 10:53:36;;;;;;;6.73;1.00;;;10.60;99.90;;;;;;4899153;29;20229;-71
2023/01/11 10:56:13;;;;;;;8.17;0.97;;;10.80;99.90;;;;;;4899136;29;20222;-71
2023/01/11 10:58:49;;;;;;;8.63;1.30;;;10.70;99.90;;;;;;4899057;29;20241;-71
2023/01/11 11:01:27;;;;;;;9.60;0.90;;;10.70;99.90;;;;;;4898706;29;20210;-74
2023/01/11 11:04:09;;;;;;;6.37;1.13;;;10.70;99.90;;;;;;4898997;29;20221;-72
2023/01/11 11:06:43;;;;;;;3.20;0.80;;;10.70;99.90;;;;;;4898908;29;20642;-71
2023/01/11 11:09:17;;;;;;;9.30;1.10;;;10.80;99.90;;;;;;4899045;29;20222;-72
2023/01/11 11:11:52;;;;;;;9.77;1.30;;;10.90;99.90;;;;;;4898789;29;20216;-71
2023/01/11 11:14:24;;;;;;;8.20;1.27;;;10.90;99.90;;;;;;4898860;29;20304;-72
2023/01/11 11:17:04;;;;;;;9.17;0.80;;;11.00;99.90;;;;;;4898568;29;20241;-71
2023/01/11 11:19:32;;;;;;;16.33;1.40;;;11.00;99.90;;;;;;4898739;29;20206;-72
2023/01/11 11:22:00;;;;;;;7.73;0.90;;;11.00;99.90;;;;;;4898670;29;20569;-71
2023/01/11 11:24:33;;;;;;;10.20;0.90;;;11.20;99.90;;;;;;4898477;29;20218;-72
2023/01/11 11:27:08;;;;;;;10.17;0.93;;;11.30;99.90;;;;;;4898388;29;20230;-72
2023/01/11 11:29:41;;;;;;;8.67;1.30;;;11.30;99.90;;;;;;4898229;29;20212;-72
2023/01/11 11:32:18;;;;;;;2.57;0.70;;;11.40;99.90;;;;;;4898245;29;20239;-72
2023/01/11 11:34:49;;;;;;;11.13;1.37;;;11.30;99.90;;;;;;4898294;29;20660;-73
2023/01/11 11:37:28;;;;;;;3.20;0.93;;;11.30;99.90;;;;;;4898083;29;20231;-73
2023/01/11 11:39:55;;;;;;;5.63;1.40;;;11.40;99.90;;;;;;4898594;29;20234;-73
2023/01/11 11:42:23;;;;;;;7.47;1.00;;;11.40;99.90;;;;;;4897846;29;20237;-72
2023/01/11 11:45:16;;;;;;;9.63;1.23;;;11.30;99.90;;;;;;4898225;29;20214;-72
2023/01/11 11:47:59;;;;;;;11.73;1.30;;;11.50;99.90;;;;;;4898023;29;20231;-73
2023/01/11 11:50:27;;;;;;;7.33;1.00;;;11.60;99.90;;;;;;4898120;29;20206;-72
2023/01/11 11:53:01;;;;;;;12.70;0.93;;;11.60;99.90;;;;;;4898210;29;20210;-73
2023/01/11 11:55:31;;;;;;;12.57;1.30;;;11.50;99.90;;;;;;4898092;29;20205;-73
2023/01/11 11:57:59;;;;;;;7.33;1.20;;;11.50;99.90;;;;;;4897715;29;20717;-71
2023/01/11 12:00:29;;;;;;;12.63;1.43;;;11.70;99.90;;;;;;4897954;29;20214;-72
2023/01/11 12:03:00;;;;;;;9.93;1.10;;;11.70;99.90;;;;;;4897778;29;20300;-73
2023/01/11 12:05:27;;;;;;;5.73;1.23;;;11.70;99.90;;;;;;4897858;29;20574;-73
2023/01/11 12:07:56;;;;;;;6.77;1.20;;;11.60;99.90;;;;;;4897711;29;20230;-73
2023/01/11 12:10:24;;;;;;;13.30;1.97;;;11.50;99.90;;;;;;4898028;29;20217;-72
2023/01/11 12:12:53;;;;;;;7.93;1.33;;;11.60;99.90;;;;;;4888562;29;20209;-72
2023/01/11 12:15:24;;;;;;;7.90;1.10;;;11.70;99.90;;;;;;4886547;29;20709;-71
2023/01/11 12:17:51;;;;;;;10.70;1.27;;;11.50;99.90;;;;;;4893241;29;20321;-72
2023/01/11 12:20:30;;;;;;;11.57;1.20;;;11.40;99.90;;;;;;4892261;29;20218;-72
2023/01/11 12:23:16;;;;;;;8.60;1.07;;;11.40;99.90;;;;;;4888736;29;20229;-72
2023/01/11 12:25:55;;;;;;;6.37;1.33;;;11.40;99.90;;;;;;4888683;29;20213;-72
2023/01/11 12:28:31;;;;;;;8.23;3.57;;;11.40;99.90;;;;;;4887458;29;20233;-72
2023/01/11 12:31:07;;;;;;;9.53;1.60;;;11.40;99.90;;;;;;4888679;29;20259;-72
2023/01/11 12:33:43;;;;;;;8.63;1.17;;;11.30;99.90;;;;;;4887095;29;20217;-72
2023/01/11 12:36:18;;;;;;;17.43;1.77;;;11.30;99.90;;;;;;4884153;29;20218;-72
2023/01/11 12:38:59;;;;;;;6.53;1.00;;;11.30;99.90;;;;;;4885486;29;20230;-72
2023/01/11 12:41:48;;;;;;;8.37;1.10;;;11.30;99.90;;;;;;4886393;29;20206;-72
2023/01/11 12:44:31;;;;;;;8.23;1.50;;;11.40;99.90;;;;;;4892692;29;20234;-72
2023/01/11 12:47:12;;;;;;;5.20;1.40;;;11.50;99.90;;;;;;4894276;29;20230;-72
2023/01/11 12:49:51;;;;;;;7.27;0.90;;;11.50;99.90;;;;;;4890777;29;20266;-72
2023/01/11 12:52:36;;;;;;;7.67;1.07;;;11.50;99.90;;;;;;4888341;29;20210;-72
2023/01/11 12:55:19;;;;;;;5.53;1.23;;;11.60;99.90;;;;;;4890384;29;20215;-72
2023/01/11 12:57:59;;;;;;;5.27;0.83;;;11.70;99.90;;;;;;4897103;29;20230;-72
2023/01/11 13:00:59;;;;;;;7.70;0.87;;;11.70;99.90;;;;;;4889117;29;20218;-72
2023/01/11 13:03:46;;;;;;;13.57;1.23;;;11.70;99.90;;;;;;4900921;29;20240;-72
2023/01/11 13:06:18;;;;;;;7.73;0.90;;;11.80;99.90;;;;;;4900589;29;20783;-72
2023/01/11 13:08:56;;;;;;;8.53;0.80;;;11.70;99.90;;;;;;4900989;29;20237;-72
2023/01/11 13:11:35;;;;;;;6.27;0.67;;;11.60;99.90;;;;;;4900583;29;20695;-72
2023/01/11 13:14:16;;;;;;;3.70;0.80;;;11.60;99.90;;;;;;4900339;29;20206;-73
2023/01/11 13:16:49;;;;;;;5.77;1.03;;;11.60;99.90;;;;;;4899921;29;20210;-72
2023/01/11 13:19:21;;;;;;;3.17;0.60;;;11.60;99.90;;;;;;4900087;29;20218;-72
2023/01/11 13:21:52;;;;;;;6.07;0.70;;;11.60;99.90;;;;;;4899812;29;20206;-71
2023/01/11 13:24:25;;;;;;;7.17;0.70;;;11.70;99.90;;;;;;4896069;29;20672;-69
2023/01/11 13:26:59;;;;;;;3.70;1.13;;;11.60;99.90;;;;;;4897673;29;20226;-71
2023/01/11 13:29:29;;;;;;;6.40;1.70;;;11.40;99.90;;;;;;4897770;29;20210;-72
2023/01/11 13:31:59;;;;;;;4.47;0.60;;;11.40;99.90;;;;;;4898032;29;20211;-71
2023/01/11 13:34:29;;;;;;;3.70;0.50;;;11.50;99.90;;;;;;4898409;29;20221;-70
2023/01/11 13:36:59;;;;;;;6.63;0.80;;;11.60;99.90;;;;;;4886841;29;20230;-72
2023/01/11 13:39:37;;;;;;;6.60;0.60;;;11.40;99.90;;;;;;4897271;29;20207;-70
2023/01/11 13:42:13;;;;;;;2.40;0.50;;;11.30;99.90;;;;;;4894867;29;20222;-71
2023/01/11 13:44:44;;;;;;;2.33;0.67;;;11.20;99.90;;;;;;4889700;29;20210;-72
2023/01/11 13:47:18;;;;;;;4.93;1.47;;;11.10;99.90;;;;;;4895981;29;20234;-75
2023/01/11 13:49:53;;;;;;;7.07;1.00;;;11.10;99.90;;;;;;4897362;29;20221;-76
2023/01/11 13:52:27;;;;;;;3.10;0.70;;;10.90;99.90;;;;;;4898210;29;20210;-76
2023/01/11 13:55:00;;;;;;;2.13;0.70;;;10.70;99.90;;;;;;4887147;29;20211;-74
2023/01/11 13:57:40;;;;;;;6.63;0.80;;;10.50;99.90;;;;;;4898240;29;20244;-74
2023/01/11 14:00:18;;;;;;;3.63;0.60;;;10.40;99.90;;;;;;4898212;29;20215;-74
2023/01/11 14:02:49;;;;;;;1.47;0.53;;;10.30;99.90;;;;;;4897184;29;20230;-73
2023/01/11 14:05:20;;;;;;;4.07;0.60;;;10.30;99.90;;;;;;4897877;29;20210;-74
2023/01/11 14:08:17;;;;;;;4.47;0.60;;;10.20;99.90;;;;;;4885521;29;20230;-75
2023/01/11 14:10:55;;;;;;;4.77;0.60;;;10.20;99.90;;;;;;4896707;29;20208;-73
2023/01/11 14:16:47;;;;;;;4.53;0.70;;;10.10;99.90;;;;;;4897348;29;20543;-73
2023/01/11 14:19:22;;;;;;;2.57;0.40;;;10.10;99.90;;;;;;4897323;29;20225;-72
2023/01/11 14:22:00;;;;;;;3.53;0.60;;;10.00;99.90;;;;;;4896778;29;20670;-71
2023/01/11 14:24:30;;;;;;;4.20;0.80;;;10.00;99.90;;;;;;4897225;29;20237;-76
2023/01/11 14:27:19;;;;;;;6.53;1.00;;;10.00;99.90;;;;;;4897588;29;20311;-75
2023/01/11 14:30:07;;;;;;;6.60;1.27;;;9.90;99.90;;;;;;4897348;29;20543;-74
2023/01/11 14:33:14;;;;;;;4.03;1.07;;;9.90;99.90;;;;;;4898160;29;20206;-74
2023/01/11 14:36:12;;;;;;;6.43;0.70;;;10.10;99.90;;;;;;4889591;29;20211;-75
2023/01/11 14:38:59;;;;;;;3.30;0.87;;;10.10;99.90;;;;;;4883837;29;20230;-74
2023/01/11 14:42:08;;;;;;;5.87;0.83;;;10.20;99.90;;;;;;4898692;29;20295;-74
2023/01/11 14:44:49;;;;;;;3.83;0.60;;;10.20;99.90;;;;;;4876004;29;20245;-74
2023/01/11 14:47:58;;;;;;;3.80;0.90;;;10.30;99.90;;;;;;4880024;29;20231;-72
2023/01/11 14:50:37;;;;;;;1.93;0.53;;;10.30;99.90;;;;;;4864114;29;20237;-72
2023/01/11 14:53:06;;;;;;;4.07;0.60;;;10.30;99.90;;;;;;4880417;29;20219;-74
2023/01/11 14:55:39;;;;;;;6.60;1.00;;;10.30;99.90;;;;;;4880370;29;20223;-74
2023/01/11 14:58:17;;;;;;;5.90;0.57;;;10.20;99.90;;;;;;4879918;29;20227;-74
2023/01/11 15:01:08;;;;;;;4.50;0.87;;;10.20;99.90;;;;;;4880159;29;20211;-72
2023/01/11 15:03:48;;;;;;;5.83;0.50;;;10.10;99.90;;;;;;4880175;29;20246;-75
2023/01/11 15:06:19;;;;;;;6.20;0.63;;;10.00;99.90;;;;;;4880016;29;20225;-74
2023/01/11 15:08:48;;;;;;;4.30;0.60;;;10.00;99.90;;;;;;4879505;29;20698;-74
2023/01/11 15:11:40;;;;;;;5.13;0.60;;;9.90;99.90;;;;;;4879807;29;20222;-73
2023/01/11 15:14:24;;;;;;;7.13;1.33;;;9.80;99.90;;;;;;4879545;29;20211;-74
2023/01/11 15:19:41;;;;;;;1.83;0.50;;;9.80;99.90;;;;;;4879719;29;20574;-74
2023/01/11 15:22:24;;;;;;;5.93;0.80;;;9.70;99.90;;;;;;4879422;29;20207;-74
2023/01/11 15:24:58;;;;;;;2.37;0.90;;;9.60;99.90;;;;;;4879548;29;20238;-74
2023/01/11 15:27:26;;;;;;;6.27;0.90;;;9.60;99.90;;;;;;4880026;29;20294;-74
2023/01/11 15:29:55;;;;;;;4.73;0.70;;;9.60;99.90;;;;;;4879489;29;20215;-75
2023/01/11 15:32:27;;;;;;;8.23;1.00;;;9.70;99.90;;;;;;4879353;29;20671;-74
2023/01/11 15:35:16;;;;;;;3.60;0.43;;;9.70;99.90;;;;;;4879300;29;20682;-74
2023/01/11 15:37:48;;;;;;;2.37;0.67;;;9.70;99.90;;;;;;4879065;29;20572;-73
2023/01/11 15:40:20;;;;;;;2.33;0.80;;;9.70;99.90;;;;;;4890656;29;20209;-73
2023/01/11 15:43:29;;;;;;;3.07;0.70;;;9.70;99.90;;;;;;4897978;29;20696;-74
2023/01/11 15:49:28;;;;;;;4.67;0.70;;;9.60;99.90;;;;;;4898224;29;20210;-72
2023/01/11 15:52:19;;;;;;;4.13;0.60;;;9.50;99.90;;;;;;4897118;29;20214;-72
2023/01/11 15:55:22;;;;;;;4.53;0.60;;;9.50;99.90;;;;;;4898154;29;20235;-72
2023/01/11 15:58:24;;;;;;;4.43;0.57;;;9.60;99.90;;;;;;4898148;29;20305;-73
2023/01/11 16:01:24;;;;;;;6.53;0.83;;;9.70;99.90;;;;;;4898034;29;20577;-72
2023/01/11 16:03:59;;;;;;;7.00;0.90;;;9.70;99.90;;;;;;4897555;29;20246;-72
2023/01/11 16:06:44;;;;;;;8.53;1.30;;;9.80;99.90;;;;;;4898005;29;20261;-72
2023/01/11 16:09:43;;;;;;;2.23;0.50;;;9.80;99.90;;;;;;4898001;29;20214;-72
2023/01/11 16:12:32;;;;;;;4.90;0.50;;;9.80;99.90;;;;;;4895114;29;20214;-71
2023/01/11 16:15:21;;;;;;;5.27;0.80;;;9.80;99.90;;;;;;4896962;29;20222;-74
2023/01/11 16:17:48;;;;;;;7.70;1.13;;;9.80;99.90;;;;;;4897655;29;20714;-74
2023/01/11 16:20:25;;;;;;;7.97;0.77;;;9.70;99.90;;;;;;4896517;29;20214;-73
2023/01/11 16:22:56;;;;;;;9.87;1.27;;;9.70;99.90;;;;;;4897110;29;20297;-73
2023/01/11 16:25:27;;;;;;;7.17;1.00;;;9.60;99.90;;;;;;4897051;29;20218;-73
2023/01/11 16:27:57;;;;;;;5.77;1.40;;;9.60;99.90;;;;;;4897364;29;20260;-73
2023/01/11 16:30:24;;;;;;;8.07;0.90;;;9.60;99.90;;;;;;4900836;29;20218;-76
2023/01/11 16:32:51;;;;;;;5.00;0.70;;;9.60;99.90;;;;;;4901014;29;20218;-71
2023/01/11 16:35:20;;;;;;;7.60;1.00;;;9.60;99.90;;;;;;4895968;29;20668;-72
2023/01/11 16:37:50;;;;;;;3.23;0.70;;;9.70;99.90;;;;;;4891531;29;20235;-71
2023/01/11 16:40:21;;;;;;;6.93;0.80;;;9.70;99.90;;;;;;4890530;29;20213;-75
2023/01/11 16:42:52;;;;;;;5.00;1.50;;;9.70;99.90;;;;;;4900129;29;20206;-77
2023/01/11 16:45:22;;;;;;;4.23;1.00;;;9.70;99.90;;;;;;4889425;29;20243;-73
2023/01/11 16:48:05;;;;;;;5.57;1.20;;;9.70;99.90;;;;;;4890852;29;20250;-77
2023/01/11 16:50:35;;;;;;;6.70;0.87;;;9.70;99.90;;;;;;4890535;29;20663;-77
2023/01/11 16:53:03;;;;;;;7.63;1.10;;;9.60;99.90;;;;;;4894828;29;20218;-78
2023/01/11 16:55:36;;;;;;;6.73;1.33;;;9.50;99.90;;;;;;4890178;29;20221;-76
2023/01/11 16:58:06;;;;;;;5.97;0.80;;;9.50;99.90;;;;;;4894924;29;20242;-77
2023/01/11 17:00:37;;;;;;;6.77;1.50;;;9.50;99.90;;;;;;4896815;29;20219;-74
2023/01/11 17:03:28;;;;;;;6.10;1.00;;;9.60;99.90;;;;;;4894046;29;20206;-74
2023/01/11 17:06:00;;;;;;;4.93;0.83;;;9.60;99.90;;;;;;4897283;29;20262;-74
2023/01/11 17:08:31;;;;;;;7.60;1.30;;;9.60;99.90;;;;;;4900581;29;20236;-74
2023/01/11 17:11:02;;;;;;;8.63;0.93;;;9.60;99.90;;;;;;4900579;29;20752;-76
2023/01/11 17:14:13;;;;;;;5.87;1.10;;;9.60;99.90;;;;;;4900939;29;20219;-76
2023/01/11 17:16:44;;;;;;;6.73;1.27;;;9.60;99.90;;;;;;4900069;29;20216;-72
2023/01/11 17:19:15;;;;;;;5.23;1.10;;;9.60;99.90;;;;;;4900566;29;20226;-76
2023/01/11 17:21:48;;;;;;;3.23;0.60;;;9.60;99.90;;;;;;4899627;29;20210;-77
2023/01/11 17:24:16;;;;;;;4.17;1.43;;;9.60;99.90;;;;;;4900771;29;20256;-76
2023/01/11 17:26:46;;;;;;;7.27;0.97;;;9.60;99.90;;;;;;4900422;29;20230;-76
2023/01/11 17:29:17;;;;;;;6.30;1.10;;;9.60;99.90;;;;;;4900464;29;20217;-73
2023/01/11 17:31:45;;;;;;;3.33;0.70;;;9.50;99.90;;;;;;4899913;29;20262;-74
2023/01/11 17:34:19;;;;;;;5.23;0.97;;;9.60;99.90;;;;;;4899816;29;20215;-74
2023/01/11 17:36:47;;;;;;;4.17;0.87;;;9.70;99.90;;;;;;4888249;29;20226;-76
2023/01/11 17:39:21;;;;;;;3.37;0.70;;;9.70;99.90;;;;;;4899265;29;20214;-77
2023/01/11 17:47:19;;;;;;;3.63;1.20;;;9.70;99.90;;;;;;4899355;29;20229;-74
2023/01/11 17:49:50;;;;;;;6.00;2.20;;;9.70;99.90;;;;;;4899965;29;20214;-78
2023/01/11 17:52:21;;;;;;;10.20;2.87;;;9.70;99.90;;;;;;4900612;29;20211;-77
2023/01/11 17:54:58;;;;;;;7.33;2.07;;;9.70;99.90;;;;;;4899223;29;20737;-76
2023/01/11 17:57:25;;;;;;;8.23;2.33;;;9.70;99.90;;;;;;4900220;29;20230;-75
2023/01/11 18:00:26;;;;;;;3.10;1.00;;;9.70;99.90;;;;;;4900302;29;20217;-75
2023/01/11 18:02:54;;;;;;;9.77;2.40;;;9.70;99.90;;;;;;4900142;29;20578;-75
2023/01/11 18:05:25;;;;;;;5.73;1.20;;;9.70;99.90;;;;;;4899925;29;20263;-75
2023/01/11 18:07:56;;;;;;;12.43;2.93;;;9.70;99.90;;;;;;4900055;29;20697;-77
2023/01/11 18:10:26;;;;;;;4.27;1.60;;;9.70;99.90;;;;;;4899942;29;20324;-76
2023/01/11 18:12:55;;;;;;;6.07;0.77;;;9.60;99.90;;;;;;4899757;29;20210;-75
2023/01/11 18:15:29;;;;;;;6.77;1.70;;;9.60;99.90;;;;;;4900148;29;20206;-76
2023/01/11 18:17:56;;;;;;;6.67;1.20;;;9.60;99.90;;;;;;4899853;29;20325;-76
2023/01/11 18:20:38;;;;;;;7.77;0.93;;;9.50;99.90;;;;;;4899938;29;20214;-77
2023/01/11 18:23:19;;;;;;;5.63;0.97;;;9.50;99.90;;;;;;4899862;29;20210;-76
2023/01/11 18:25:46;;;;;;;5.10;1.20;;;9.50;99.90;;;;;;4899598;29;20238;-76
2023/01/11 18:28:25;;;;;;;5.77;1.13;;;9.60;99.90;;;;;;4899818;29;20226;-77
2023/01/11 18:30:56;;;;;;;7.97;1.23;;;9.60;99.90;;;;;;4899748;29;20222;-76
2023/01/11 18:33:25;;;;;;;6.47;0.97;;;9.60;99.90;;;;;;4899355;29;20211;-77
2023/01/11 18:35:54;;;;;;;2.97;1.07;;;9.60;99.90;;;;;;4899384;29;20217;-76
2023/01/11 18:38:24;;;;;;;3.60;1.10;;;9.60;99.90;;;;;;4899412;29;20234;-75
2023/01/11 18:40:52;;;;;;;6.63;1.53;;;9.60;99.90;;;;;;4899484;29;20242;-76
2023/01/11 18:43:24;;;;;;;8.63;1.27;;;9.60;99.90;;;;;;4899457;29;20220;-74
2023/01/11 18:45:51;;;;;;;5.07;0.80;;;9.50;99.90;;;;;;4899145;29;20234;-75
2023/01/11 18:48:19;;;;;;;4.93;0.83;;;9.60;99.90;;;;;;4898929;29;20226;-74
2023/01/11 18:50:47;;;;;;;5.27;1.43;;;9.60;99.90;;;;;;4898507;29;20211;-76
2023/01/11 18:53:17;;;;;;;3.47;0.80;;;9.70;99.90;;;;;;4899291;29;20217;-75
2023/01/11 18:55:45;;;;;;;6.90;1.13;;;9.70;99.90;;;;;;4899198;29;20278;-74
2023/01/11 18:58:12;;;;;;;5.00;0.70;;;9.80;99.90;;;;;;4898872;29;20238;-74
2023/01/11 19:00:40;;;;;;;5.33;0.80;;;9.80;99.90;;;;;;4898440;29;20237;-74
2023/01/11 19:03:09;;;;;;;7.30;0.97;;;9.80;99.90;;;;;;4898689;29;20249;-74
2023/01/11 19:05:38;;;;;;;4.23;1.07;;;9.80;99.90;;;;;;4898747;29;20237;-72
2023/01/11 19:08:06;;;;;;;3.87;1.00;;;9.80;99.90;;;;;;4899070;29;20234;-74
2023/01/11 19:10:33;;;;;;;6.17;1.90;;;9.80;99.90;;;;;;4898954;29;20297;-74
2023/01/11 19:13:00;;;;;;;18.10;4.60;;;9.80;99.90;;;;;;4898555;29;20217;-75
2023/01/11 19:15:27;;;;;;;8.53;2.13;;;9.80;99.90;;;;;;4898341;29;20666;-74
2023/01/11 19:17:53;;;;;;;4.77;0.97;;;9.90;99.90;;;;;;4898776;29;20234;-72
2023/01/11 19:20:20;;;;;;;6.07;1.50;;;9.90;99.90;;;;;;4898546;29;20297;-73
2023/01/11 19:22:48;;;;;;;9.50;1.30;;;9.90;99.90;;;;;;4898590;29;20220;-75
2023/01/11 19:25:15;;;;;;;5.43;1.43;;;9.90;99.90;;;;;;4898483;29;20242;-73
2023/01/11 19:27:42;;;;;;;10.07;0.80;;;9.90;99.90;;;;;;4898256;29;20230;-73
2023/01/11 19:30:10;;;;;;;6.20;1.37;;;9.90;99.90;;;;;;4898373;29;20669;-73
2023/01/11 19:32:37;;;;;;;2.97;0.70;;;9.90;99.90;;;;;;4898441;29;20210;-74
2023/01/11 19:35:05;;;;;;;5.30;0.67;;;9.90;99.90;;;;;;4898187;29;20638;-74
2023/01/11 19:37:32;;;;;;;8.27;1.20;;;9.90;99.90;;;;;;4898229;29;20236;-72
2023/01/11 19:40:01;;;;;;;0.60;0.40;;;9.90;99.90;;;;;;4898098;29;20304;-74
2023/01/11 19:42:28;;;;;;;7.07;1.17;;;9.90;99.90;;;;;;4898428;29;20218;-75
2023/01/11 19:44:55;;;;;;;7.07;1.00;;;10.00;99.90;;;;;;4898416;29;20234;-72
2023/01/11 19:47:21;;;;;;;2.93;0.80;;;9.90;99.90;;;;;;4898146;29;20625;-73
2023/01/11 19:49:48;;;;;;;3.73;0.80;;;9.90;99.90;;;;;;4898193;29;20214;-75
2023/01/11 19:52:17;;;;;;;12.17;1.13;;;9.90;99.90;;;;;;4898123;29;20235;-75
2023/01/11 19:54:45;;;;;;;5.20;1.00;;;9.90;99.90;;;;;;4898043;29;20210;-73
2023/01/11 19:57:16;;;;;;;11.70;1.00;;;9.90;99.90;;;;;;4897929;29;20241;-72
2023/01/11 19:59:43;;;;;;;10.30;1.83;;;9.90;99.90;;;;;;4898124;29;20217;-75
2023/01/11 20:02:11;;;;;;;9.40;2.77;;;9.80;99.90;;;;;;4897416;29;20734;-74
2023/01/11 20:04:38;;;;;;;3.87;1.30;;;9.80;99.90;;;;;;4897802;29;20709;-73
2023/01/11 20:07:05;;;;;;;8.20;1.53;;;9.70;99.90;;;;;;4897929;29;20234;-72
2023/01/11 20:09:31;;;;;;;8.20;1.10;;;9.60;99.90;;;;;;4897960;29;20216;-72
2023/01/11 20:11:58;;;;;;;9.10;1.00;;;9.50;99.90;;;;;;4897964;29;20297;-74
2023/01/11 20:14:26;;;;;;;10.33;1.10;;;9.50;99.90;;;;;;4898041;29;20221;-74
2023/01/11 20:16:53;;;;;;;6.03;1.87;;;9.50;99.90;;;;;;4897833;29;20234;-72
2023/01/11 20:19:20;;;;;;;8.60;1.90;;;9.50;99.90;;;;;;4897955;29;20222;-72
2023/01/11 20:21:47;;;;;;;9.23;1.57;;;9.40;99.90;;;;;;4897820;29;20206;-74
2023/01/11 20:24:15;;;;;;;9.10;2.20;;;9.40;99.90;;;;;;4897766;29;20221;-75
2023/01/11 20:26:44;;;;;;;8.50;1.97;;;9.40;99.90;;;;;;4897632;29;20213;-74
2023/01/11 20:29:11;;;;;;;5.03;1.87;;;9.40;99.90;;;;;;4897649;29;20207;-74
2023/01/11 20:31:39;;;;;;;8.57;1.10;;;9.30;99.90;;;;;;4897525;29;20302;-72
2023/01/11 20:34:07;;;;;;;3.33;1.00;;;9.30;99.90;;;;;;4897672;29;20297;-74
2023/01/11 20:36:34;;;;;;;8.40;1.40;;;9.40;99.90;;;;;;4897600;29;20678;-74
2023/01/11 20:39:01;;;;;;;3.97;0.87;;;9.40;99.90;;;;;;4897708;29;20232;-74
2023/01/11 20:41:46;;;;;;;7.60;1.17;;;9.40;99.90;;;;;;4897782;29;20220;-72
2023/01/11 20:44:15;;;;;;;4.37;1.13;;;9.50;99.90;;;;;;4897483;29;20217;-72
2023/01/11 20:46:44;;;;;;;6.90;1.53;;;9.50;99.90;;;;;;4897153;29;20293;-73
2023/01/11 20:49:11;;;;;;;6.40;1.33;;;9.50;99.90;;;;;;4897461;29;20217;-73
2023/01/11 20:51:38;;;;;;;3.23;1.33;;;9.50;99.90;;;;;;4897276;29;20206;-72
2023/01/11 20:54:05;;;;;;;3.53;1.23;;;9.60;99.90;;;;;;4897675;29;20207;-72
2023/01/11 20:56:32;;;;;;;5.83;0.90;;;9.50;99.90;;;;;;4897353;29;20295;-73
2023/01/11 20:59:00;;;;;;;4.43;0.90;;;9.50;99.90;;;;;;4897720;29;20214;-75
2023/01/11 21:01:28;;;;;;;4.63;0.70;;;9.40;99.90;;;;;;4897394;29;20225;-75
2023/01/11 21:03:59;;;;;;;5.30;1.23;;;9.30;99.90;;;;;;4897382;29;20262;-73
2023/01/11 21:06:26;;;;;;;5.00;1.13;;;9.30;99.90;;;;;;4897329;29;20332;-72
2023/01/11 21:08:54;;;;;;;5.83;1.10;;;9.20;99.90;;;;;;4897457;29;20212;-73
2023/01/11 21:11:21;;;;;;;5.73;1.60;;;9.10;99.90;;;;;;4896883;29;20210;-74
2023/01/11 21:13:50;;;;;;;10.53;1.00;;;9.10;99.90;;;;;;4895976;29;20241;-74
2023/01/11 21:16:17;;;;;;;9.70;1.00;;;9.10;99.90;;;;;;4898683;29;20218;-74
2023/01/11 21:18:44;;;;;;;1.73;0.60;;;9.00;99.90;;;;;;4899387;29;20230;-73
2023/01/11 21:21:15;;;;;;;5.90;1.07;;;9.00;99.90;;;;;;4898849;29;20740;-73
2023/01/11 21:23:42;;;;;;;1.87;0.90;;;9.00;99.90;;;;;;4899487;29;20741;-72
2023/01/11 21:26:11;;;;;;;4.27;0.80;;;9.10;99.90;;;;;;4899571;29;20234;-75
2023/01/11 21:28:39;;;;;;;7.83;1.13;;;9.10;99.90;;;;;;4900059;29;20231;-73
2023/01/11 21:31:06;;;;;;;9.33;1.10;;;9.10;99.90;;;;;;4900404;29;20222;-74
2023/01/11 21:33:33;;;;;;;7.73;0.80;;;9.10;99.90;;;;;;4900225;29;20217;-74
2023/01/11 21:36:02;;;;;;;5.87;1.10;;;9.10;99.90;;;;;;4900017;29;20673;-74
2023/01/11 21:38:31;;;;;;;6.70;0.43;;;9.10;99.90;;;;;;4899806;29;20720;-72
2023/01/11 21:41:04;;;;;;;3.77;1.00;;;9.10;99.90;;;;;;4899620;29;20207;-74
2023/01/11 21:43:31;;;;;;;4.43;0.87;;;9.10;99.90;;;;;;4900050;29;20275;-72
2023/01/11 21:45:58;;;;;;;6.20;1.23;;;9.10;99.90;;;;;;4899383;29;20230;-74
2023/01/11 21:48:25;;;;;;;3.37;0.70;;;9.10;99.90;;;;;;4898402;29;20554;-73
2023/01/11 21:50:52;;;;;;;3.43;0.70;;;9.10;99.90;;;;;;4899672;29;20198;-74
2023/01/11 21:53:19;;;;;;;8.73;0.77;;;9.10;99.90;;;;;;4899504;29;20551;-72
2023/01/11 21:55:48;;;;;;;3.90;0.87;;;9.10;99.90;;;;;;4899641;29;20230;-75
2023/01/11 21:58:15;;;;;;;5.33;1.00;;;9.10;99.90;;;;;;4900068;29;20765;-73
2023/01/11 22:00:42;;;;;;;3.70;1.00;;;9.10;99.90;;;;;;4900226;29;20221;-75
2023/01/11 22:03:09;;;;;;;5.03;0.93;;;9.10;99.90;;;;;;4899752;29;20206;-74
2023/01/11 22:05:35;;;;;;;6.83;0.93;;;9.00;99.90;;;;;;4899923;29;20725;-74
2023/01/11 22:08:02;;;;;;;5.10;1.10;;;9.00;99.90;;;;;;4899797;29;20238;-72
2023/01/11 22:10:29;;;;;;;8.67;0.97;;;8.90;99.90;;;;;;4900175;29;20222;-73
2023/01/11 22:12:57;;;;;;;7.37;0.57;;;8.90;99.90;;;;;;4899791;29;20603;-74
2023/01/11 22:15:24;;;;;;;9.13;0.80;;;8.90;99.90;;;;;;4899955;29;20210;-75
2023/01/11 22:17:52;;;;;;;5.80;0.60;;;8.90;99.90;;;;;;4899756;29;20234;-75
2023/01/11 22:20:19;;;;;;;5.90;1.30;;;8.90;99.90;;;;;;4899954;29;20301;-76
2023/01/11 22:22:46;;;;;;;6.67;0.93;;;8.90;99.90;;;;;;4899707;29;20674;-74
2023/01/11 22:25:12;;;;;;;2.50;0.73;;;8.80;99.90;;;;;;4899747;29;20244;-71
2023/01/11 22:27:39;;;;;;;2.37;0.80;;;8.80;99.90;;;;;;4899722;29;20234;-72
2023/01/11 22:30:09;;;;;;;7.83;0.80;;;8.80;99.90;;;;;;4899746;29;20634;-74
2023/01/11 22:32:36;;;;;;;4.53;1.00;;;8.80;99.90;;;;;;4899367;29;20222;-73
2023/01/11 22:35:03;;;;;;;8.67;0.90;;;8.90;99.90;;;;;;4899491;29;20314;-74
2023/01/11 22:37:30;;;;;;;5.77;1.00;;;8.80;99.90;;;;;;4899545;29;20230;-73
2023/01/11 22:39:57;;;;;;;6.53;0.93;;;8.90;99.90;;;;;;4899483;29;20210;-73
2023/01/11 22:42:24;;;;;;;6.27;0.90;;;8.90;99.90;;;;;;4899433;29;20281;-73
2023/01/11 22:44:52;;;;;;;7.93;1.10;;;8.90;99.90;;;;;;4899093;29;20740;-73
2023/01/11 22:47:20;;;;;;;6.73;0.90;;;9.00;99.90;;;;;;4898834;29;20800;-73
2023/01/11 22:49:52;;;;;;;7.27;1.73;;;8.90;99.90;;;;;;4899069;29;20217;-73
2023/01/11 22:52:19;;;;;;;9.80;0.87;;;8.80;99.90;;;;;;4899160;29;20214;-73
2023/01/11 22:54:46;;;;;;;2.40;0.70;;;8.70;99.90;;;;;;4899095;29;20221;-73
2023/01/11 22:57:13;;;;;;;4.43;0.87;;;8.70;99.90;;;;;;4899158;29;20782;-73
2023/01/11 22:59:40;;;;;;;1.73;0.70;;;8.60;99.90;;;;;;4898321;29;20217;-73
2023/01/11 23:02:06;;;;;;;3.10;0.87;;;8.60;99.90;;;;;;4898827;29;20225;-73
2023/01/11 23:04:35;;;;;;;6.13;1.00;;;8.60;99.90;;;;;;4894535;29;20206;-74
